createdAt,value
2023-04-30T00:01:30.323Z,1.83
2023-04-30T00:04:00.283Z,2.27
2023-04-30T00:06:31.770Z,2.20
2023-04-30T00:09:01.592Z,2.03
2023-04-30T00:11:34.031Z,2.23
2023-04-30T00:14:09.499Z,1.93
2023-04-30T00:16:42.129Z,2.17
2023-04-30T00:19:13.812Z,2.87
2023-04-30T00:21:54.266Z,2.70
2023-04-30T00:24:24.098Z,3.00
2023-04-30T00:26:59.949Z,2.13
2023-04-30T00:29:35.786Z,2.77
2023-04-30T00:32:08.655Z,2.20
2023-04-30T01:06:17.710Z,2.50
2023-04-30T01:08:48.638Z,2.10
2023-04-30T01:11:27.948Z,2.27
2023-04-30T01:14:08.442Z,2.40
2023-04-30T01:16:43.371Z,2.30
2023-04-30T01:19:28.656Z,1.80
2023-04-30T01:22:05.423Z,1.77
2023-04-30T01:24:57.325Z,2.23
2023-04-30T01:27:40.852Z,2.07
2023-04-30T01:30:14.944Z,2.17
2023-04-30T01:32:44.833Z,2.47
2023-04-30T01:35:14.671Z,2.47
2023-04-30T01:37:55.733Z,2.37
2023-04-30T01:40:31.343Z,2.73
2023-04-30T01:43:08.597Z,3.00
2023-04-30T01:45:58.004Z,2.80
2023-04-30T01:48:43.307Z,2.60
2023-04-30T01:51:22.620Z,2.50
2023-04-30T01:53:52.712Z,2.50
2023-04-30T01:56:30.251Z,2.50
2023-04-30T01:59:00.644Z,2.63
2023-04-30T02:01:35.580Z,2.77
2023-04-30T02:04:05.593Z,2.60
2023-04-30T02:06:35.960Z,2.10
2023-04-30T02:09:07.259Z,2.00
2023-04-30T02:11:37.092Z,1.87
2023-04-30T02:14:07.040Z,1.70
2023-04-30T02:16:39.881Z,2.30
2023-04-30T02:19:09.883Z,1.80
2023-04-30T02:21:39.756Z,1.70
2023-04-30T02:24:10.220Z,1.83
2023-04-30T02:26:40.020Z,1.43
2023-04-30T02:29:09.856Z,1.80
2023-04-30T02:31:42.420Z,2.00
2023-04-30T02:34:12.294Z,1.70
2023-04-30T02:36:42.156Z,2.23
2023-04-30T02:39:12.011Z,2.10
2023-04-30T02:41:41.859Z,2.27
2023-04-30T02:44:11.785Z,2.40
2023-04-30T02:46:47.722Z,1.93
2023-04-30T02:49:20.808Z,2.13
2023-04-30T02:51:50.890Z,2.10
2023-04-30T02:54:23.979Z,2.37
2023-04-30T02:57:00.020Z,1.87
2023-04-30T02:59:33.577Z,2.17
2023-04-30T03:45:19.429Z,2.00
2023-04-30T03:47:49.319Z,2.20
2023-04-30T03:50:20.764Z,1.93
2023-04-30T03:52:50.770Z,2.47
2023-04-30T03:55:20.772Z,2.10
2023-04-30T03:57:50.723Z,1.80
2023-04-30T04:00:23.454Z,1.83
2023-04-30T04:02:53.568Z,2.17
2023-04-30T04:05:23.491Z,2.47
2023-04-30T04:07:53.846Z,2.53
2023-04-30T04:10:23.642Z,2.80
2023-04-30T04:12:53.936Z,2.30
2023-04-30T04:15:26.446Z,2.37
2023-04-30T04:17:56.371Z,2.47
2023-04-30T04:20:26.291Z,2.37
2023-04-30T04:22:56.374Z,2.30
2023-04-30T04:25:27.675Z,2.50
2023-04-30T04:27:57.540Z,1.90
2023-04-30T04:30:30.069Z,2.30
2023-04-30T04:33:00.759Z,2.40
2023-04-30T04:35:31.345Z,2.20
2023-04-30T04:38:01.661Z,2.27
2023-04-30T04:40:31.874Z,2.47
2023-04-30T04:43:01.763Z,2.70
2023-04-30T04:45:34.476Z,2.50
2023-04-30T04:48:04.340Z,2.30
2023-04-30T04:50:37.436Z,2.60
2023-04-30T04:53:07.456Z,3.20
2023-04-30T04:55:37.414Z,2.60
2023-04-30T04:58:07.369Z,2.93
2023-04-30T05:00:39.893Z,2.83
2023-04-30T05:03:10.637Z,2.80
2023-04-30T05:05:40.616Z,2.70
2023-04-30T05:08:10.476Z,2.80
2023-04-30T05:10:43.470Z,2.80
2023-04-30T05:13:13.564Z,3.37
2023-04-30T05:15:46.239Z,3.00
2023-04-30T05:18:16.533Z,2.60
2023-04-30T05:20:46.468Z,2.73
2023-04-30T05:23:16.385Z,2.30
2023-04-30T05:25:46.948Z,3.30
2023-04-30T05:28:16.835Z,3.00
2023-04-30T05:30:49.550Z,3.40
2023-04-30T05:33:19.417Z,3.13
2023-04-30T05:35:49.287Z,3.23
2023-04-30T05:38:19.133Z,3.17
2023-04-30T05:40:49.463Z,3.10
2023-04-30T05:43:19.286Z,2.70
2023-04-30T05:45:54.903Z,3.20
2023-04-30T05:48:27.095Z,2.90
2023-04-30T05:50:56.875Z,3.40
2023-04-30T05:53:26.699Z,3.07
2023-04-30T05:55:56.570Z,3.20
2023-04-30T05:58:26.443Z,2.83
2023-04-30T06:00:59.469Z,3.10
2023-04-30T06:03:29.312Z,2.73
2023-04-30T06:05:59.180Z,3.50
2023-04-30T06:08:30.018Z,3.23
2023-04-30T06:24:59.676Z,2.83
2023-04-30T06:27:37.830Z,2.87
2023-04-30T06:30:13.703Z,3.10
2023-04-30T06:32:46.504Z,2.63
2023-04-30T06:35:21.303Z,3.20
2023-04-30T06:37:51.517Z,3.03
2023-04-30T06:40:41.044Z,3.17
2023-04-30T06:43:14.998Z,3.33
2023-04-30T06:45:51.084Z,2.70
2023-04-30T06:48:22.617Z,2.50
2023-04-30T06:50:58.277Z,3.40
2023-04-30T06:53:28.246Z,3.10
2023-04-30T06:56:01.240Z,2.97
2023-04-30T06:58:33.273Z,3.53
2023-04-30T07:01:03.676Z,3.47
2023-04-30T07:03:34.028Z,3.27
2023-04-30T07:06:12.238Z,3.13
2023-04-30T07:08:46.872Z,3.97
2023-04-30T07:11:19.276Z,3.60
2023-04-30T07:13:49.087Z,3.10
2023-04-30T07:16:21.693Z,3.33
2023-04-30T07:18:54.440Z,2.93
2023-04-30T07:21:28.050Z,3.37
2023-04-30T07:24:02.563Z,3.23
2023-04-30T07:26:40.681Z,2.80
2023-04-30T07:29:16.520Z,3.17
2023-04-30T07:31:46.381Z,3.57
2023-04-30T07:34:22.412Z,3.57
2023-04-30T07:36:57.551Z,3.43
2023-04-30T07:39:27.332Z,3.30
2023-04-30T07:41:57.439Z,3.50
2023-04-30T07:44:27.364Z,3.20
2023-04-30T07:46:58.806Z,3.10
2023-04-30T07:49:35.715Z,2.63
2023-04-30T07:52:11.394Z,2.83
2023-04-30T07:54:42.904Z,3.10
2023-04-30T07:57:18.581Z,2.87
2023-04-30T07:59:51.421Z,3.40
2023-04-30T08:02:23.050Z,3.57
2023-04-30T08:05:01.496Z,2.67
2023-04-30T08:07:33.948Z,3.47
2023-04-30T08:10:05.121Z,3.20
2023-04-30T08:12:37.212Z,3.03
2023-04-30T08:15:08.650Z,2.70
2023-04-30T08:17:40.294Z,3.10
2023-04-30T08:20:14.068Z,2.90
2023-04-30T08:22:46.734Z,3.10
2023-04-30T08:25:19.490Z,3.23
2023-04-30T08:27:49.445Z,3.20
2023-04-30T08:30:20.573Z,3.07
2023-04-30T08:32:56.051Z,3.00
2023-04-30T08:35:32.794Z,3.00
2023-04-30T08:38:20.533Z,2.90
2023-04-30T08:41:09.918Z,2.67
2023-04-30T08:43:46.035Z,2.53
2023-04-30T08:46:27.188Z,2.97
2023-04-30T08:49:11.177Z,3.30
2023-04-30T08:51:51.720Z,2.73
2023-04-30T08:54:29.499Z,2.90
2023-04-30T08:57:06.002Z,2.97
2023-04-30T08:59:36.011Z,2.37
2023-04-30T09:02:10.875Z,2.93
2023-04-30T09:04:49.891Z,2.57
2023-04-30T09:07:27.228Z,3.23
2023-04-30T09:10:03.401Z,2.60
2023-04-30T09:12:43.355Z,2.50
2023-04-30T09:15:14.589Z,2.60
2023-04-30T09:17:52.180Z,2.53
2023-04-30T09:20:36.400Z,2.30
2023-04-30T09:23:13.431Z,2.50
2023-04-30T09:25:46.660Z,2.50
2023-04-30T09:28:25.689Z,2.23
2023-04-30T09:30:56.158Z,2.07
2023-04-30T09:33:26.229Z,2.23
2023-04-30T09:36:01.594Z,2.73
2023-04-30T09:38:35.110Z,2.30
2023-04-30T09:41:10.391Z,2.90
2023-04-30T09:43:48.960Z,2.20
2023-04-30T09:46:25.716Z,2.40
2023-04-30T09:49:02.524Z,2.20
2023-04-30T09:51:33.026Z,2.30
2023-04-30T09:54:05.898Z,2.20
2023-04-30T09:56:42.697Z,2.70
2023-04-30T09:59:15.593Z,2.20
2023-04-30T10:01:49.422Z,2.40
2023-04-30T10:04:22.547Z,2.30
2023-04-30T10:07:04.161Z,2.20
2023-04-30T10:09:42.754Z,1.90
2023-04-30T10:12:21.397Z,2.08
2023-04-30T10:15:01.114Z,2.30
2023-04-30T10:17:37.456Z,2.00
2023-04-30T10:20:11.816Z,2.17
2023-04-30T10:22:48.466Z,1.80
2023-04-30T10:25:22.078Z,2.60
2023-04-30T10:28:02.588Z,2.20
2023-04-30T10:53:30.134Z,2.13
2023-04-30T10:56:07.025Z,2.30
2023-04-30T10:58:38.772Z,2.70
2023-04-30T11:01:11.639Z,2.53
2023-04-30T11:03:45.074Z,2.00
2023-04-30T11:06:16.218Z,2.35
2023-04-30T11:08:50.589Z,1.80
2023-04-30T11:11:23.073Z,2.58
2023-04-30T11:14:04.383Z,2.20
2023-04-30T11:16:34.696Z,2.60
2023-04-30T11:19:11.531Z,2.42
2023-04-30T11:21:44.036Z,2.25
2023-04-30T11:24:16.471Z,2.78
2023-04-30T11:27:07.591Z,2.70
2023-04-30T11:29:38.020Z,2.47
2023-04-30T11:32:08.727Z,2.90
2023-04-30T11:53:34.788Z,2.47
2023-04-30T11:56:07.869Z,2.70
2023-04-30T11:58:39.380Z,3.67
2023-04-30T12:01:11.102Z,2.90
2023-04-30T12:03:45.832Z,3.27
2023-04-30T12:06:16.137Z,3.28
2023-04-30T12:08:50.230Z,2.92
2023-04-30T12:11:33.802Z,3.00
2023-04-30T12:45:04.279Z,2.53
2023-04-30T12:47:38.263Z,2.25
2023-04-30T12:50:16.937Z,2.20
2023-04-30T12:52:49.472Z,2.20
2023-04-30T12:55:29.673Z,2.70
2023-04-30T12:58:13.160Z,2.20
2023-04-30T13:00:52.717Z,2.10
2023-04-30T13:03:42.929Z,2.53
2023-04-30T13:06:13.309Z,2.58
2023-04-30T13:08:56.881Z,1.90
2023-04-30T13:11:28.984Z,2.37
2023-04-30T13:13:58.856Z,2.08
2023-04-30T13:16:32.574Z,2.00
2023-04-30T13:19:02.680Z,2.17
2023-04-30T13:21:33.054Z,2.27
2023-04-30T13:24:02.989Z,2.30
2023-04-30T13:26:33.045Z,2.03
2023-04-30T13:29:02.846Z,2.05
2023-04-30T13:31:35.505Z,2.20
2023-04-30T13:34:05.358Z,2.33
2023-04-30T13:36:36.284Z,3.00
2023-04-30T13:39:07.135Z,2.60
2023-04-30T13:41:36.987Z,2.40
2023-04-30T13:44:06.869Z,2.70
2023-04-30T13:46:39.445Z,2.30
2023-04-30T13:49:09.345Z,2.67
2023-04-30T13:51:39.153Z,2.20
2023-04-30T13:54:09.028Z,1.95
2023-04-30T13:56:38.973Z,2.58
2023-04-30T13:59:08.774Z,2.55
2023-04-30T14:01:41.679Z,3.05
2023-04-30T14:04:11.512Z,2.45
2023-04-30T14:06:42.180Z,2.17
2023-04-30T14:09:12.113Z,2.17
2023-04-30T14:11:42.255Z,2.13
2023-04-30T14:14:12.432Z,2.40
2023-04-30T14:16:46.317Z,2.03
2023-04-30T14:19:19.210Z,1.90
2023-04-30T14:21:49.629Z,2.40
2023-04-30T14:24:20.293Z,2.95
2023-04-30T14:26:50.120Z,2.30
2023-04-30T14:29:21.615Z,2.30
2023-04-30T14:31:54.375Z,2.67
2023-04-30T14:34:24.761Z,2.58
2023-04-30T14:36:57.024Z,2.37
2023-04-30T14:39:41.590Z,2.10
2023-04-30T14:42:13.645Z,2.07
2023-04-30T14:44:46.418Z,2.30
2023-04-30T14:47:37.538Z,2.20
2023-04-30T14:50:08.269Z,1.80
2023-04-30T15:15:54.360Z,2.40
2023-04-30T15:21:52.971Z,2.33
2023-04-30T15:24:22.881Z,2.40
2023-04-30T15:26:54.606Z,2.17
2023-04-30T15:29:24.432Z,1.63
2023-04-30T15:31:54.622Z,1.90
2023-04-30T15:34:25.432Z,1.83
2023-04-30T15:36:59.250Z,1.90
2023-04-30T15:39:32.034Z,1.85
2023-04-30T15:42:06.196Z,1.70
2023-04-30T16:53:52.690Z,2.60
2023-04-30T16:56:25.006Z,2.78
2023-04-30T16:58:54.906Z,2.50
2023-04-30T17:01:24.796Z,2.97
2023-04-30T17:03:55.901Z,2.85
2023-04-30T17:06:28.123Z,3.20
2023-04-30T17:09:00.671Z,3.63
2023-04-30T17:11:31.262Z,3.57
2023-04-30T17:14:01.352Z,3.17
2023-04-30T17:16:31.298Z,4.00
2023-04-30T17:19:01.459Z,3.60
2023-04-30T17:21:31.597Z,3.80
2023-04-30T17:24:04.060Z,5.40
2023-04-30T17:26:34.433Z,4.60
2023-04-30T17:29:04.645Z,4.20
2023-04-30T17:31:37.742Z,4.73
2023-04-30T17:34:07.672Z,5.20
2023-04-30T17:36:37.607Z,4.93
2023-04-30T17:39:09.994Z,5.23
2023-04-30T17:41:39.848Z,4.97
2023-04-30T17:44:09.668Z,4.93
2023-04-30T17:46:39.830Z,4.80
2023-04-30T17:49:10.291Z,5.40
2023-04-30T17:51:43.226Z,5.00
2023-04-30T17:54:17.287Z,4.20
2023-04-30T17:56:47.130Z,4.73
2023-04-30T17:59:16.959Z,5.03
2023-04-30T18:01:46.900Z,4.77
2023-04-30T18:04:21.004Z,4.80
2023-04-30T18:06:51.687Z,5.00
2023-04-30T18:09:24.185Z,4.63
2023-04-30T18:11:54.154Z,4.70
2023-04-30T18:14:23.982Z,5.53
2023-04-30T18:16:56.186Z,4.67
2023-04-30T18:19:26.067Z,4.90
2023-04-30T18:21:57.005Z,4.77
2023-04-30T18:24:29.425Z,5.53
2023-04-30T18:27:00.120Z,5.50
2023-04-30T18:29:29.930Z,5.80
2023-04-30T18:31:59.840Z,5.67
2023-04-30T18:34:30.332Z,6.27
2023-04-30T18:37:01.494Z,6.00
2023-04-30T18:39:33.974Z,6.67
2023-04-30T18:42:10.003Z,6.57
2023-04-30T18:44:40.037Z,7.00
2023-04-30T18:47:13.691Z,6.90
2023-04-30T18:49:43.532Z,6.53
2023-04-30T18:52:17.917Z,8.00
2023-04-30T18:54:52.422Z,7.03
2023-04-30T18:57:31.336Z,6.83
2023-04-30T19:00:01.173Z,7.00
2023-04-30T19:02:32.254Z,6.73
2023-04-30T19:05:22.417Z,6.43
2023-04-30T19:07:52.266Z,7.27
2023-04-30T19:10:24.747Z,7.63
2023-04-30T19:12:56.324Z,6.97
2023-04-30T19:15:27.445Z,7.33
2023-04-30T19:17:58.817Z,7.17
2023-04-30T19:20:31.018Z,7.20
2023-04-30T19:23:06.219Z,7.03
2023-04-30T19:25:40.741Z,7.30
2023-04-30T19:28:11.591Z,7.43
2023-04-30T19:30:41.507Z,7.30
2023-04-30T19:33:13.276Z,7.70
2023-04-30T19:35:43.476Z,7.30
2023-04-30T19:38:13.351Z,6.97
2023-04-30T19:40:49.313Z,6.93
2023-04-30T19:43:19.368Z,6.43
2023-04-30T19:45:52.937Z,6.27
2023-04-30T19:48:24.783Z,6.67
2023-04-30T19:50:56.105Z,5.83
2023-04-30T19:53:32.807Z,5.67
2023-04-30T19:56:05.243Z,5.70
2023-04-30T19:58:35.116Z,6.00
2023-04-30T20:01:04.954Z,5.77
2023-04-30T20:03:35.980Z,4.93
2023-04-30T20:06:06.094Z,5.50
2023-04-30T20:08:35.967Z,5.70
2023-04-30T20:11:09.902Z,4.93
2023-04-30T20:13:39.693Z,5.00
2023-04-30T20:16:12.666Z,5.20
2023-04-30T20:18:42.816Z,5.17
2023-04-30T20:21:14.533Z,5.13
2023-04-30T20:23:44.370Z,5.47
2023-04-30T20:26:17.222Z,5.10
2023-04-30T20:28:47.005Z,5.90
2023-04-30T20:31:16.907Z,5.43
2023-04-30T20:33:46.984Z,5.93
2023-04-30T20:36:20.591Z,5.00
2023-04-30T20:38:55.904Z,5.20
2023-04-30T20:41:30.640Z,5.00
2023-04-30T20:44:00.857Z,4.80
2023-04-30T22:14:07.588Z,3.27
2023-04-30T22:16:41.854Z,3.23
2023-04-30T22:19:26.981Z,3.40
2023-04-30T22:24:53.740Z,3.30
2023-04-30T22:27:26.366Z,3.20
2023-04-30T22:30:06.382Z,3.07
2023-04-30T23:08:08.936Z,3.90
2023-04-30T23:10:38.839Z,3.80
2023-04-30T23:13:08.846Z,3.17
2023-04-30T23:15:38.676Z,3.80
2023-04-30T23:18:08.573Z,3.73
2023-04-30T23:20:38.777Z,3.60
2023-04-30T23:23:12.203Z,3.70
2023-04-30T23:25:42.164Z,4.00
2023-04-30T23:28:12.053Z,4.00
2023-04-30T23:30:41.952Z,4.23
2023-04-30T23:33:11.852Z,4.07
2023-04-30T23:35:46.034Z,3.90
2023-04-30T23:38:19.255Z,4.30
2023-04-30T23:40:49.098Z,4.60
2023-04-30T23:43:19.041Z,4.43
2023-04-30T23:45:48.926Z,4.60
2023-04-30T23:48:18.817Z,4.27
2023-04-30T23:50:48.634Z,4.40
2023-04-30T23:53:21.088Z,4.73
2023-04-30T23:55:53.194Z,4.57
2023-04-30T23:58:23.020Z,4.10
